sensor_id;sensor_type;location;lat;lon;timestamp;P1;durP1;ratioP1;P2;durP2;ratioP2
45970;SDS011;31681;48.982;8.394;2023-03-04T00:01:12;31.77;;;14.40;;
45970;SDS011;31681;48.982;8.394;2023-03-04T00:03:37;33.80;;;15.37;;
45970;SDS011;31681;48.982;8.394;2023-03-04T00:06:03;31.33;;;14.97;;
45970;SDS011;31681;48.982;8.394;2023-03-04T00:08:29;36.37;;;14.90;;
45970;SDS011;31681;48.982;8.394;2023-03-04T00:10:54;35.07;;;14.97;;
45970;SDS011;31681;48.982;8.394;2023-03-04T00:13:20;36.73;;;16.50;;
45970;SDS011;31681;48.982;8.394;2023-03-04T00:15:46;39.23;;;17.43;;
45970;SDS011;31681;48.982;8.394;2023-03-04T00:18:12;42.43;;;17.97;;
45970;SDS011;31681;48.982;8.394;2023-03-04T00:20:38;38.50;;;17.30;;
45970;SDS011;31681;48.982;8.394;2023-03-04T00:23:03;42.73;;;17.97;;
45970;SDS011;31681;48.982;8.394;2023-03-04T00:25:29;41.40;;;17.30;;
45970;SDS011;31681;48.982;8.394;2023-03-04T00:27:54;38.90;;;18.00;;
45970;SDS011;31681;48.982;8.394;2023-03-04T00:30:20;41.67;;;16.63;;
45970;SDS011;31681;48.982;8.394;2023-03-04T00:32:45;40.50;;;17.30;;
45970;SDS011;31681;48.982;8.394;2023-03-04T00:35:11;36.63;;;18.03;;
45970;SDS011;31681;48.982;8.394;2023-03-04T00:37:36;45.60;;;18.07;;
45970;SDS011;31681;48.982;8.394;2023-03-04T00:40:02;41.73;;;17.73;;
45970;SDS011;31681;48.982;8.394;2023-03-04T00:42:27;39.43;;;17.73;;
45970;SDS011;31681;48.982;8.394;2023-03-04T00:44:53;36.67;;;16.70;;
45970;SDS011;31681;48.982;8.394;2023-03-04T00:47:18;36.37;;;17.03;;
45970;SDS011;31681;48.982;8.394;2023-03-04T00:49:44;41.53;;;17.17;;
45970;SDS011;31681;48.982;8.394;2023-03-04T00:52:09;50.10;;;20.60;;
45970;SDS011;31681;48.982;8.394;2023-03-04T00:54:35;46.27;;;19.93;;
45970;SDS011;31681;48.982;8.394;2023-03-04T00:57:00;53.80;;;20.60;;
45970;SDS011;31681;48.982;8.394;2023-03-04T00:59:26;49.67;;;20.77;;
45970;SDS011;31681;48.982;8.394;2023-03-04T01:01:52;48.37;;;19.07;;
45970;SDS011;31681;48.982;8.394;2023-03-04T01:04:17;47.53;;;19.67;;
45970;SDS011;31681;48.982;8.394;2023-03-04T01:06:43;45.30;;;18.37;;
45970;SDS011;31681;48.982;8.394;2023-03-04T01:09:10;49.10;;;19.40;;
45970;SDS011;31681;48.982;8.394;2023-03-04T01:11:35;48.40;;;21.23;;
45970;SDS011;31681;48.982;8.394;2023-03-04T01:14:01;50.07;;;19.87;;
45970;SDS011;31681;48.982;8.394;2023-03-04T01:16:26;46.33;;;19.60;;
45970;SDS011;31681;48.982;8.394;2023-03-04T01:18:52;49.23;;;18.80;;
45970;SDS011;31681;48.982;8.394;2023-03-04T01:21:18;50.03;;;20.53;;
45970;SDS011;31681;48.982;8.394;2023-03-04T01:23:43;55.40;;;21.00;;
45970;SDS011;31681;48.982;8.394;2023-03-04T01:26:09;58.03;;;22.17;;
45970;SDS011;31681;48.982;8.394;2023-03-04T01:28:34;52.33;;;20.53;;
45970;SDS011;31681;48.982;8.394;2023-03-04T01:31:00;55.20;;;20.80;;
45970;SDS011;31681;48.982;8.394;2023-03-04T01:33:26;49.87;;;20.97;;
45970;SDS011;31681;48.982;8.394;2023-03-04T01:35:52;56.53;;;21.90;;
45970;SDS011;31681;48.982;8.394;2023-03-04T01:38:17;55.07;;;20.77;;
45970;SDS011;31681;48.982;8.394;2023-03-04T01:40:43;55.37;;;21.77;;
45970;SDS011;31681;48.982;8.394;2023-03-04T01:43:10;54.87;;;21.47;;
45970;SDS011;31681;48.982;8.394;2023-03-04T01:45:44;53.87;;;20.50;;
45970;SDS011;31681;48.982;8.394;2023-03-04T01:48:10;59.50;;;22.13;;
45970;SDS011;31681;48.982;8.394;2023-03-04T01:50:40;55.53;;;22.23;;
45970;SDS011;31681;48.982;8.394;2023-03-04T01:53:05;60.00;;;21.30;;
45970;SDS011;31681;48.982;8.394;2023-03-04T01:55:31;52.23;;;20.20;;
45970;SDS011;31681;48.982;8.394;2023-03-04T01:57:57;55.77;;;21.40;;
45970;SDS011;31681;48.982;8.394;2023-03-04T02:00:30;62.80;;;22.50;;
45970;SDS011;31681;48.982;8.394;2023-03-04T02:02:59;63.17;;;22.20;;
45970;SDS011;31681;48.982;8.394;2023-03-04T02:05:28;60.97;;;21.60;;
45970;SDS011;31681;48.982;8.394;2023-03-04T02:07:54;62.30;;;21.83;;
45970;SDS011;31681;48.982;8.394;2023-03-04T02:10:22;60.00;;;22.97;;
45970;SDS011;31681;48.982;8.394;2023-03-04T02:12:48;65.53;;;23.13;;
45970;SDS011;31681;48.982;8.394;2023-03-04T02:15:15;61.63;;;23.23;;
45970;SDS011;31681;48.982;8.394;2023-03-04T02:17:41;67.43;;;21.77;;
45970;SDS011;31681;48.982;8.394;2023-03-04T02:22:48;62.60;;;22.07;;
45970;SDS011;31681;48.982;8.394;2023-03-04T02:25:27;69.30;;;23.03;;
45970;SDS011;31681;48.982;8.394;2023-03-04T02:27:59;69.03;;;23.13;;
45970;SDS011;31681;48.982;8.394;2023-03-04T02:30:25;61.70;;;23.17;;
45970;SDS011;31681;48.982;8.394;2023-03-04T02:32:51;66.30;;;24.80;;
45970;SDS011;31681;48.982;8.394;2023-03-04T02:35:18;73.27;;;24.93;;
45970;SDS011;31681;48.982;8.394;2023-03-04T02:37:44;66.33;;;22.83;;
45970;SDS011;31681;48.982;8.394;2023-03-04T02:40:15;66.33;;;23.20;;
45970;SDS011;31681;48.982;8.394;2023-03-04T02:42:45;69.47;;;22.90;;
45970;SDS011;31681;48.982;8.394;2023-03-04T02:45:29;66.17;;;23.37;;
45970;SDS011;31681;48.982;8.394;2023-03-04T02:48:15;74.60;;;24.20;;
45970;SDS011;31681;48.982;8.394;2023-03-04T02:50:44;64.27;;;23.00;;
45970;SDS011;31681;48.982;8.394;2023-03-04T02:53:12;68.13;;;21.80;;
45970;SDS011;31681;48.982;8.394;2023-03-04T02:55:39;73.00;;;23.73;;
45970;SDS011;31681;48.982;8.394;2023-03-04T02:58:07;70.17;;;24.17;;
45970;SDS011;31681;48.982;8.394;2023-03-04T03:00:33;73.63;;;24.57;;
45970;SDS011;31681;48.982;8.394;2023-03-04T03:03:00;65.40;;;21.93;;
45970;SDS011;31681;48.982;8.394;2023-03-04T03:05:26;64.37;;;22.23;;
45970;SDS011;31681;48.982;8.394;2023-03-04T03:07:54;71.03;;;23.33;;
45970;SDS011;31681;48.982;8.394;2023-03-04T03:10:20;63.57;;;22.13;;
45970;SDS011;31681;48.982;8.394;2023-03-04T03:12:46;61.87;;;23.27;;
45970;SDS011;31681;48.982;8.394;2023-03-04T03:15:11;67.67;;;23.27;;
45970;SDS011;31681;48.982;8.394;2023-03-04T03:17:37;68.53;;;23.30;;
45970;SDS011;31681;48.982;8.394;2023-03-04T03:20:03;61.17;;;23.07;;
45970;SDS011;31681;48.982;8.394;2023-03-04T03:22:29;57.43;;;21.50;;
45970;SDS011;31681;48.982;8.394;2023-03-04T03:24:55;60.27;;;21.80;;
45970;SDS011;31681;48.982;8.394;2023-03-04T03:27:20;62.30;;;21.07;;
45970;SDS011;31681;48.982;8.394;2023-03-04T03:29:46;68.00;;;23.37;;
45970;SDS011;31681;48.982;8.394;2023-03-04T03:32:11;70.30;;;24.27;;
45970;SDS011;31681;48.982;8.394;2023-03-04T03:34:36;62.97;;;22.23;;
45970;SDS011;31681;48.982;8.394;2023-03-04T03:37:02;67.43;;;23.37;;
45970;SDS011;31681;48.982;8.394;2023-03-04T03:39:28;64.43;;;22.97;;
45970;SDS011;31681;48.982;8.394;2023-03-04T03:41:53;63.20;;;23.07;;
45970;SDS011;31681;48.982;8.394;2023-03-04T03:44:18;60.33;;;21.40;;
45970;SDS011;31681;48.982;8.394;2023-03-04T03:46:44;72.77;;;23.17;;
45970;SDS011;31681;48.982;8.394;2023-03-04T03:49:10;67.90;;;22.10;;
45970;SDS011;31681;48.982;8.394;2023-03-04T03:51:36;66.37;;;22.90;;
45970;SDS011;31681;48.982;8.394;2023-03-04T03:54:01;68.37;;;23.37;;
45970;SDS011;31681;48.982;8.394;2023-03-04T03:56:27;58.03;;;20.93;;
45970;SDS011;31681;48.982;8.394;2023-03-04T03:58:52;63.07;;;20.97;;
45970;SDS011;31681;48.982;8.394;2023-03-04T04:01:18;62.13;;;21.67;;
45970;SDS011;31681;48.982;8.394;2023-03-04T04:03:43;62.93;;;22.07;;
45970;SDS011;31681;48.982;8.394;2023-03-04T04:06:09;66.07;;;22.13;;
45970;SDS011;31681;48.982;8.394;2023-03-04T04:08:34;65.77;;;22.53;;
45970;SDS011;31681;48.982;8.394;2023-03-04T04:10:59;63.50;;;21.13;;
45970;SDS011;31681;48.982;8.394;2023-03-04T04:13:25;64.20;;;22.17;;
45970;SDS011;31681;48.982;8.394;2023-03-04T04:15:51;59.30;;;21.73;;
45970;SDS011;31681;48.982;8.394;2023-03-04T04:18:17;63.97;;;20.57;;
45970;SDS011;31681;48.982;8.394;2023-03-04T04:20:42;63.60;;;21.47;;
45970;SDS011;31681;48.982;8.394;2023-03-04T04:23:08;63.03;;;22.93;;
45970;SDS011;31681;48.982;8.394;2023-03-04T04:25:33;57.47;;;21.50;;
45970;SDS011;31681;48.982;8.394;2023-03-04T04:27:59;59.23;;;21.00;;
45970;SDS011;31681;48.982;8.394;2023-03-04T04:30:24;63.60;;;21.90;;
45970;SDS011;31681;48.982;8.394;2023-03-04T04:32:50;61.37;;;21.17;;
45970;SDS011;31681;48.982;8.394;2023-03-04T04:35:15;64.43;;;20.97;;
45970;SDS011;31681;48.982;8.394;2023-03-04T04:37:41;66.33;;;20.57;;
45970;SDS011;31681;48.982;8.394;2023-03-04T04:40:06;65.70;;;22.03;;
45970;SDS011;31681;48.982;8.394;2023-03-04T04:42:32;57.93;;;19.53;;
45970;SDS011;31681;48.982;8.394;2023-03-04T04:44:58;62.97;;;21.10;;
45970;SDS011;31681;48.982;8.394;2023-03-04T04:47:23;60.53;;;20.97;;
45970;SDS011;31681;48.982;8.394;2023-03-04T04:49:49;63.13;;;19.87;;
45970;SDS011;31681;48.982;8.394;2023-03-04T04:52:14;65.20;;;20.27;;
45970;SDS011;31681;48.982;8.394;2023-03-04T04:54:40;57.23;;;20.37;;
45970;SDS011;31681;48.982;8.394;2023-03-04T04:57:05;54.80;;;19.37;;
45970;SDS011;31681;48.982;8.394;2023-03-04T04:59:30;60.27;;;19.90;;
45970;SDS011;31681;48.982;8.394;2023-03-04T05:01:56;57.40;;;21.37;;
45970;SDS011;31681;48.982;8.394;2023-03-04T05:04:21;58.83;;;21.53;;
45970;SDS011;31681;48.982;8.394;2023-03-04T05:06:47;61.40;;;20.87;;
45970;SDS011;31681;48.982;8.394;2023-03-04T05:09:12;57.77;;;20.30;;
45970;SDS011;31681;48.982;8.394;2023-03-04T05:11:38;58.77;;;20.13;;
45970;SDS011;31681;48.982;8.394;2023-03-04T05:14:03;60.53;;;20.57;;
45970;SDS011;31681;48.982;8.394;2023-03-04T05:16:29;60.73;;;20.17;;
45970;SDS011;31681;48.982;8.394;2023-03-04T05:18:54;66.83;;;21.63;;
45970;SDS011;31681;48.982;8.394;2023-03-04T05:21:20;57.37;;;20.80;;
45970;SDS011;31681;48.982;8.394;2023-03-04T05:23:45;66.13;;;20.43;;
45970;SDS011;31681;48.982;8.394;2023-03-04T05:26:15;67.90;;;21.17;;
45970;SDS011;31681;48.982;8.394;2023-03-04T05:28:41;63.13;;;21.33;;
45970;SDS011;31681;48.982;8.394;2023-03-04T05:31:08;57.33;;;19.43;;
45970;SDS011;31681;48.982;8.394;2023-03-04T05:33:33;51.37;;;19.60;;
45970;SDS011;31681;48.982;8.394;2023-03-04T05:36:00;58.37;;;19.43;;
45970;SDS011;31681;48.982;8.394;2023-03-04T05:38:26;60.50;;;18.93;;
45970;SDS011;31681;48.982;8.394;2023-03-04T05:40:58;58.30;;;19.83;;
45970;SDS011;31681;48.982;8.394;2023-03-04T05:43:26;59.80;;;20.47;;
45970;SDS011;31681;48.982;8.394;2023-03-04T05:45:52;57.47;;;19.57;;
45970;SDS011;31681;48.982;8.394;2023-03-04T05:48:18;62.03;;;19.57;;
45970;SDS011;31681;48.982;8.394;2023-03-04T05:50:44;62.17;;;21.43;;
45970;SDS011;31681;48.982;8.394;2023-03-04T05:53:10;55.43;;;20.10;;
45970;SDS011;31681;48.982;8.394;2023-03-04T05:55:35;53.80;;;20.33;;
45970;SDS011;31681;48.982;8.394;2023-03-04T05:58:01;55.70;;;19.97;;
45970;SDS011;31681;48.982;8.394;2023-03-04T06:00:26;57.30;;;19.93;;
45970;SDS011;31681;48.982;8.394;2023-03-04T06:02:52;57.40;;;20.47;;
45970;SDS011;31681;48.982;8.394;2023-03-04T06:05:18;57.63;;;20.37;;
45970;SDS011;31681;48.982;8.394;2023-03-04T06:07:44;56.93;;;18.80;;
45970;SDS011;31681;48.982;8.394;2023-03-04T06:10:14;54.47;;;18.50;;
45970;SDS011;31681;48.982;8.394;2023-03-04T06:12:41;58.30;;;20.57;;
45970;SDS011;31681;48.982;8.394;2023-03-04T06:15:07;58.47;;;19.77;;
45970;SDS011;31681;48.982;8.394;2023-03-04T06:17:34;55.57;;;19.10;;
45970;SDS011;31681;48.982;8.394;2023-03-04T06:19:59;58.73;;;20.83;;
45970;SDS011;31681;48.982;8.394;2023-03-04T06:22:25;51.07;;;19.37;;
45970;SDS011;31681;48.982;8.394;2023-03-04T06:24:50;64.00;;;20.17;;
45970;SDS011;31681;48.982;8.394;2023-03-04T06:27:16;64.17;;;19.07;;
45970;SDS011;31681;48.982;8.394;2023-03-04T06:29:41;56.23;;;18.43;;
45970;SDS011;31681;48.982;8.394;2023-03-04T06:32:07;55.50;;;19.47;;
45970;SDS011;31681;48.982;8.394;2023-03-04T06:34:32;54.27;;;19.10;;
45970;SDS011;31681;48.982;8.394;2023-03-04T06:36:58;60.63;;;20.63;;
45970;SDS011;31681;48.982;8.394;2023-03-04T06:39:23;55.83;;;20.20;;
45970;SDS011;31681;48.982;8.394;2023-03-04T06:41:49;58.33;;;19.60;;
45970;SDS011;31681;48.982;8.394;2023-03-04T06:44:14;66.13;;;22.20;;
45970;SDS011;31681;48.982;8.394;2023-03-04T06:46:40;62.30;;;21.70;;
45970;SDS011;31681;48.982;8.394;2023-03-04T06:49:06;61.63;;;20.70;;
45970;SDS011;31681;48.982;8.394;2023-03-04T06:51:31;64.47;;;21.63;;
45970;SDS011;31681;48.982;8.394;2023-03-04T06:53:56;64.23;;;21.30;;
45970;SDS011;31681;48.982;8.394;2023-03-04T06:56:22;62.93;;;20.80;;
45970;SDS011;31681;48.982;8.394;2023-03-04T06:58:47;58.67;;;21.27;;
45970;SDS011;31681;48.982;8.394;2023-03-04T07:01:15;61.97;;;20.97;;
45970;SDS011;31681;48.982;8.394;2023-03-04T07:03:41;68.33;;;22.57;;
45970;SDS011;31681;48.982;8.394;2023-03-04T07:06:08;64.53;;;21.43;;
45970;SDS011;31681;48.982;8.394;2023-03-04T07:08:35;64.60;;;22.93;;
45970;SDS011;31681;48.982;8.394;2023-03-04T07:11:00;59.50;;;22.40;;
45970;SDS011;31681;48.982;8.394;2023-03-04T07:13:25;74.83;;;24.03;;
45970;SDS011;31681;48.982;8.394;2023-03-04T07:15:51;62.50;;;20.30;;
45970;SDS011;31681;48.982;8.394;2023-03-04T07:18:17;61.27;;;22.37;;
45970;SDS011;31681;48.982;8.394;2023-03-04T07:20:42;72.27;;;23.50;;
45970;SDS011;31681;48.982;8.394;2023-03-04T07:23:08;65.50;;;20.70;;
45970;SDS011;31681;48.982;8.394;2023-03-04T07:25:33;70.13;;;23.63;;
45970;SDS011;31681;48.982;8.394;2023-03-04T07:27:59;63.20;;;22.97;;
45970;SDS011;31681;48.982;8.394;2023-03-04T07:30:24;62.00;;;22.73;;
45970;SDS011;31681;48.982;8.394;2023-03-04T07:32:50;61.13;;;20.33;;
45970;SDS011;31681;48.982;8.394;2023-03-04T07:35:16;54.50;;;19.57;;
45970;SDS011;31681;48.982;8.394;2023-03-04T07:37:41;61.33;;;22.57;;
45970;SDS011;31681;48.982;8.394;2023-03-04T07:40:07;66.33;;;22.27;;
45970;SDS011;31681;48.982;8.394;2023-03-04T07:42:33;62.00;;;22.23;;
45970;SDS011;31681;48.982;8.394;2023-03-04T07:45:04;53.47;;;21.17;;
45970;SDS011;31681;48.982;8.394;2023-03-04T07:47:30;64.80;;;22.43;;
45970;SDS011;31681;48.982;8.394;2023-03-04T07:49:56;70.00;;;22.83;;
45970;SDS011;31681;48.982;8.394;2023-03-04T07:52:21;64.90;;;21.90;;
45970;SDS011;31681;48.982;8.394;2023-03-04T07:54:47;66.70;;;21.73;;
45970;SDS011;31681;48.982;8.394;2023-03-04T07:57:12;64.93;;;21.93;;
45970;SDS011;31681;48.982;8.394;2023-03-04T07:59:38;57.27;;;21.73;;
45970;SDS011;31681;48.982;8.394;2023-03-04T08:02:03;62.30;;;20.83;;
45970;SDS011;31681;48.982;8.394;2023-03-04T08:04:29;61.43;;;22.63;;
45970;SDS011;31681;48.982;8.394;2023-03-04T08:06:54;63.83;;;21.77;;
45970;SDS011;31681;48.982;8.394;2023-03-04T08:09:21;62.70;;;23.43;;
45970;SDS011;31681;48.982;8.394;2023-03-04T08:11:46;55.70;;;20.90;;
45970;SDS011;31681;48.982;8.394;2023-03-04T08:14:12;62.87;;;22.87;;
45970;SDS011;31681;48.982;8.394;2023-03-04T08:16:38;52.13;;;21.97;;
45970;SDS011;31681;48.982;8.394;2023-03-04T08:19:04;56.73;;;21.70;;
45970;SDS011;31681;48.982;8.394;2023-03-04T08:21:31;104.63;;;39.83;;
45970;SDS011;31681;48.982;8.394;2023-03-04T08:23:58;63.13;;;24.53;;
45970;SDS011;31681;48.982;8.394;2023-03-04T08:26:27;57.90;;;21.60;;
45970;SDS011;31681;48.982;8.394;2023-03-04T08:29:03;57.80;;;21.00;;
45970;SDS011;31681;48.982;8.394;2023-03-04T08:31:30;54.13;;;20.17;;
45970;SDS011;31681;48.982;8.394;2023-03-04T08:33:56;57.23;;;21.00;;
45970;SDS011;31681;48.982;8.394;2023-03-04T08:36:22;55.40;;;22.23;;
45970;SDS011;31681;48.982;8.394;2023-03-04T08:38:47;65.27;;;21.17;;
45970;SDS011;31681;48.982;8.394;2023-03-04T08:41:13;58.17;;;21.20;;
45970;SDS011;31681;48.982;8.394;2023-03-04T08:43:39;49.10;;;19.57;;
45970;SDS011;31681;48.982;8.394;2023-03-04T08:46:05;52.67;;;20.27;;
45970;SDS011;31681;48.982;8.394;2023-03-04T08:48:31;53.23;;;20.13;;
45970;SDS011;31681;48.982;8.394;2023-03-04T08:50:57;55.97;;;19.97;;
45970;SDS011;31681;48.982;8.394;2023-03-04T08:53:23;49.20;;;20.17;;
45970;SDS011;31681;48.982;8.394;2023-03-04T08:55:49;51.70;;;20.73;;
45970;SDS011;31681;48.982;8.394;2023-03-04T08:58:16;52.33;;;20.80;;
45970;SDS011;31681;48.982;8.394;2023-03-04T09:00:43;45.43;;;19.33;;
45970;SDS011;31681;48.982;8.394;2023-03-04T09:03:12;51.50;;;20.80;;
45970;SDS011;31681;48.982;8.394;2023-03-04T09:05:38;51.13;;;22.20;;
45970;SDS011;31681;48.982;8.394;2023-03-04T09:08:04;53.37;;;22.57;;
45970;SDS011;31681;48.982;8.394;2023-03-04T09:10:30;49.13;;;21.20;;
45970;SDS011;31681;48.982;8.394;2023-03-04T09:12:56;50.97;;;20.83;;
45970;SDS011;31681;48.982;8.394;2023-03-04T09:15:22;61.70;;;27.30;;
45970;SDS011;31681;48.982;8.394;2023-03-04T09:17:47;66.03;;;29.20;;
45970;SDS011;31681;48.982;8.394;2023-03-04T09:20:13;49.23;;;20.90;;
45970;SDS011;31681;48.982;8.394;2023-03-04T09:22:39;44.53;;;21.73;;
45970;SDS011;31681;48.982;8.394;2023-03-04T09:25:05;55.03;;;23.77;;
45970;SDS011;31681;48.982;8.394;2023-03-04T09:27:31;46.13;;;22.27;;
45970;SDS011;31681;48.982;8.394;2023-03-04T09:29:57;49.90;;;23.17;;
45970;SDS011;31681;48.982;8.394;2023-03-04T09:32:22;56.70;;;23.97;;
45970;SDS011;31681;48.982;8.394;2023-03-04T09:34:48;55.20;;;22.97;;
45970;SDS011;31681;48.982;8.394;2023-03-04T09:37:13;51.83;;;22.03;;
45970;SDS011;31681;48.982;8.394;2023-03-04T09:39:39;52.13;;;23.47;;
45970;SDS011;31681;48.982;8.394;2023-03-04T09:42:05;48.03;;;24.13;;
45970;SDS011;31681;48.982;8.394;2023-03-04T09:44:34;53.07;;;23.27;;
45970;SDS011;31681;48.982;8.394;2023-03-04T09:47:03;50.73;;;22.40;;
45970;SDS011;31681;48.982;8.394;2023-03-04T09:49:34;53.27;;;22.67;;
45970;SDS011;31681;48.982;8.394;2023-03-04T10:00:07;56.10;;;23.70;;
45970;SDS011;31681;48.982;8.394;2023-03-04T10:02:44;54.97;;;23.80;;
45970;SDS011;31681;48.982;8.394;2023-03-04T10:05:16;55.27;;;23.23;;
45970;SDS011;31681;48.982;8.394;2023-03-04T10:07:45;53.13;;;22.67;;
45970;SDS011;31681;48.982;8.394;2023-03-04T10:10:18;61.87;;;24.53;;
45970;SDS011;31681;48.982;8.394;2023-03-04T10:12:49;47.63;;;22.93;;
45970;SDS011;31681;48.982;8.394;2023-03-04T10:15:21;53.23;;;23.00;;
45970;SDS011;31681;48.982;8.394;2023-03-04T10:17:54;56.63;;;23.90;;
45970;SDS011;31681;48.982;8.394;2023-03-04T10:20:30;58.00;;;24.70;;
45970;SDS011;31681;48.982;8.394;2023-03-04T10:25:33;46.97;;;21.10;;
45970;SDS011;31681;48.982;8.394;2023-03-04T10:28:10;51.40;;;21.63;;
45970;SDS011;31681;48.982;8.394;2023-03-04T10:33:43;51.57;;;22.80;;
45970;SDS011;31681;48.982;8.394;2023-03-04T10:38:56;50.70;;;22.10;;
45970;SDS011;31681;48.982;8.394;2023-03-04T10:41:26;53.53;;;22.73;;
45970;SDS011;31681;48.982;8.394;2023-03-04T10:44:01;56.03;;;25.50;;
45970;SDS011;31681;48.982;8.394;2023-03-04T10:46:29;46.73;;;21.63;;
45970;SDS011;31681;48.982;8.394;2023-03-04T10:48:55;58.47;;;23.00;;
45970;SDS011;31681;48.982;8.394;2023-03-04T10:51:23;47.67;;;21.77;;
45970;SDS011;31681;48.982;8.394;2023-03-04T10:53:51;46.03;;;19.57;;
45970;SDS011;31681;48.982;8.394;2023-03-04T11:07:44;45.33;;;19.83;;
45970;SDS011;31681;48.982;8.394;2023-03-04T11:21:19;52.07;;;20.20;;
45970;SDS011;31681;48.982;8.394;2023-03-04T11:23:55;46.13;;;19.50;;
45970;SDS011;31681;48.982;8.394;2023-03-04T11:26:27;41.80;;;18.80;;
45970;SDS011;31681;48.982;8.394;2023-03-04T11:29:07;49.03;;;24.03;;
45970;SDS011;31681;48.982;8.394;2023-03-04T11:39:45;47.97;;;19.80;;
45970;SDS011;31681;48.982;8.394;2023-03-04T11:42:32;51.80;;;23.43;;
45970;SDS011;31681;48.982;8.394;2023-03-04T11:44:59;50.60;;;20.13;;
45970;SDS011;31681;48.982;8.394;2023-03-04T11:55:33;47.57;;;19.53;;
45970;SDS011;31681;48.982;8.394;2023-03-04T11:58:17;46.67;;;18.33;;
45970;SDS011;31681;48.982;8.394;2023-03-04T12:03:54;43.13;;;18.77;;
45970;SDS011;31681;48.982;8.394;2023-03-04T12:14:30;46.90;;;18.67;;
45970;SDS011;31681;48.982;8.394;2023-03-04T12:20:15;45.83;;;19.07;;
45970;SDS011;31681;48.982;8.394;2023-03-04T12:25:42;41.13;;;19.50;;
45970;SDS011;31681;48.982;8.394;2023-03-04T12:31:55;60.67;;;22.83;;
45970;SDS011;31681;48.982;8.394;2023-03-04T12:39:21;54.57;;;24.03;;
45970;SDS011;31681;48.982;8.394;2023-03-04T12:44:24;56.73;;;22.60;;
45970;SDS011;31681;48.982;8.394;2023-03-04T12:52:14;47.17;;;20.43;;
45970;SDS011;31681;48.982;8.394;2023-03-04T12:54:57;51.27;;;19.87;;
45970;SDS011;31681;48.982;8.394;2023-03-04T12:57:27;49.27;;;24.20;;
45970;SDS011;31681;48.982;8.394;2023-03-04T13:00:13;52.97;;;24.03;;
45970;SDS011;31681;48.982;8.394;2023-03-04T13:10:43;51.77;;;21.63;;
45970;SDS011;31681;48.982;8.394;2023-03-04T13:13:32;50.87;;;22.63;;
45970;SDS011;31681;48.982;8.394;2023-03-04T13:16:02;51.03;;;22.30;;
45970;SDS011;31681;48.982;8.394;2023-03-04T13:18:48;47.80;;;21.03;;
45970;SDS011;31681;48.982;8.394;2023-03-04T13:23:42;51.23;;;20.93;;
45970;SDS011;31681;48.982;8.394;2023-03-04T13:29:40;52.40;;;21.37;;
45970;SDS011;31681;48.982;8.394;2023-03-04T13:31:58;53.57;;;22.00;;
45970;SDS011;31681;48.982;8.394;2023-03-04T13:34:46;47.97;;;21.57;;
45970;SDS011;31681;48.982;8.394;2023-03-04T13:37:30;47.60;;;21.73;;
45970;SDS011;31681;48.982;8.394;2023-03-04T13:42:51;45.50;;;21.17;;
45970;SDS011;31681;48.982;8.394;2023-03-04T13:45:28;44.70;;;20.03;;
45970;SDS011;31681;48.982;8.394;2023-03-04T13:48:02;45.23;;;19.63;;
45970;SDS011;31681;48.982;8.394;2023-03-04T13:50:33;47.40;;;18.70;;
45970;SDS011;31681;48.982;8.394;2023-03-04T13:53:26;43.23;;;17.70;;
45970;SDS011;31681;48.982;8.394;2023-03-04T14:01:29;58.73;;;18.70;;
45970;SDS011;31681;48.982;8.394;2023-03-04T14:03:57;48.23;;;17.93;;
45970;SDS011;31681;48.982;8.394;2023-03-04T14:06:25;45.37;;;16.57;;
45970;SDS011;31681;48.982;8.394;2023-03-04T14:08:53;34.73;;;14.47;;
45970;SDS011;31681;48.982;8.394;2023-03-04T14:13:51;41.53;;;16.23;;
45970;SDS011;31681;48.982;8.394;2023-03-04T14:16:20;37.07;;;14.83;;
45970;SDS011;31681;48.982;8.394;2023-03-04T14:19:00;41.53;;;16.47;;
45970;SDS011;31681;48.982;8.394;2023-03-04T14:21:29;70.80;;;16.07;;
45970;SDS011;31681;48.982;8.394;2023-03-04T14:24:03;37.13;;;14.07;;
45970;SDS011;31681;48.982;8.394;2023-03-04T14:26:31;33.93;;;14.70;;
45970;SDS011;31681;48.982;8.394;2023-03-04T14:28:57;29.77;;;14.13;;
45970;SDS011;31681;48.982;8.394;2023-03-04T14:31:24;30.70;;;14.17;;
45970;SDS011;31681;48.982;8.394;2023-03-04T14:33:54;33.10;;;13.43;;
45970;SDS011;31681;48.982;8.394;2023-03-04T14:36:26;44.80;;;18.47;;
45970;SDS011;31681;48.982;8.394;2023-03-04T14:38:55;36.83;;;17.23;;
45970;SDS011;31681;48.982;8.394;2023-03-04T14:47:22;29.87;;;13.90;;
45970;SDS011;31681;48.982;8.394;2023-03-04T14:49:53;33.23;;;16.00;;
45970;SDS011;31681;48.982;8.394;2023-03-04T14:53:02;35.20;;;16.07;;
45970;SDS011;31681;48.982;8.394;2023-03-04T14:57:47;31.50;;;14.67;;
45970;SDS011;31681;48.982;8.394;2023-03-04T15:02:48;34.90;;;13.43;;
45970;SDS011;31681;48.982;8.394;2023-03-04T15:05:20;34.67;;;14.07;;
45970;SDS011;31681;48.982;8.394;2023-03-04T15:07:50;34.43;;;14.40;;
45970;SDS011;31681;48.982;8.394;2023-03-04T15:10:22;33.43;;;14.63;;
45970;SDS011;31681;48.982;8.394;2023-03-04T15:12:52;37.17;;;16.00;;
45970;SDS011;31681;48.982;8.394;2023-03-04T15:18:20;35.53;;;14.77;;
45970;SDS011;31681;48.982;8.394;2023-03-04T15:20:54;29.37;;;13.83;;
45970;SDS011;31681;48.982;8.394;2023-03-04T15:23:22;35.03;;;14.63;;
45970;SDS011;31681;48.982;8.394;2023-03-04T15:25:55;32.20;;;13.97;;
45970;SDS011;31681;48.982;8.394;2023-03-04T15:28:23;37.07;;;14.37;;
45970;SDS011;31681;48.982;8.394;2023-03-04T15:30:49;29.90;;;14.37;;
45970;SDS011;31681;48.982;8.394;2023-03-04T15:33:15;31.20;;;14.27;;
45970;SDS011;31681;48.982;8.394;2023-03-04T15:35:43;34.80;;;14.37;;
45970;SDS011;31681;48.982;8.394;2023-03-04T15:38:23;32.13;;;13.40;;
45970;SDS011;31681;48.982;8.394;2023-03-04T15:40:49;33.90;;;14.10;;
45970;SDS011;31681;48.982;8.394;2023-03-04T15:43:17;28.03;;;12.33;;
45970;SDS011;31681;48.982;8.394;2023-03-04T15:45:44;25.83;;;13.00;;
45970;SDS011;31681;48.982;8.394;2023-03-04T15:48:12;27.47;;;11.43;;
45970;SDS011;31681;48.982;8.394;2023-03-04T15:50:43;26.57;;;12.50;;
45970;SDS011;31681;48.982;8.394;2023-03-04T15:53:57;31.70;;;13.50;;
45970;SDS011;31681;48.982;8.394;2023-03-04T15:56:00;30.97;;;12.13;;
45970;SDS011;31681;48.982;8.394;2023-03-04T15:58:28;39.50;;;15.77;;
45970;SDS011;31681;48.982;8.394;2023-03-04T16:00:54;56.03;;;20.43;;
45970;SDS011;31681;48.982;8.394;2023-03-04T16:03:19;27.40;;;12.27;;
45970;SDS011;31681;48.982;8.394;2023-03-04T16:05:47;25.47;;;12.37;;
45970;SDS011;31681;48.982;8.394;2023-03-04T16:08:15;27.73;;;11.50;;
45970;SDS011;31681;48.982;8.394;2023-03-04T16:10:43;35.57;;;12.53;;
45970;SDS011;31681;48.982;8.394;2023-03-04T16:13:13;29.73;;;12.33;;
45970;SDS011;31681;48.982;8.394;2023-03-04T16:15:41;32.23;;;12.87;;
45970;SDS011;31681;48.982;8.394;2023-03-04T16:18:07;26.40;;;12.00;;
45970;SDS011;31681;48.982;8.394;2023-03-04T16:20:34;27.23;;;12.37;;
45970;SDS011;31681;48.982;8.394;2023-03-04T16:22:59;29.80;;;12.33;;
45970;SDS011;31681;48.982;8.394;2023-03-04T16:25:26;30.40;;;13.87;;
45970;SDS011;31681;48.982;8.394;2023-03-04T16:27:53;31.60;;;14.07;;
45970;SDS011;31681;48.982;8.394;2023-03-04T16:30:24;33.77;;;13.27;;
45970;SDS011;31681;48.982;8.394;2023-03-04T16:32:51;36.07;;;15.10;;
45970;SDS011;31681;48.982;8.394;2023-03-04T16:35:17;46.27;;;18.60;;